createdAt,value
2023-07-19T00:00:40.888Z,14.77
2023-07-19T00:01:41.022Z,14.69
2023-07-19T00:02:41.139Z,14.70
2023-07-19T00:03:41.200Z,14.65
2023-07-19T00:04:41.270Z,14.68
2023-07-19T00:05:41.355Z,14.64
2023-07-19T00:06:41.432Z,14.61
2023-07-19T00:07:41.606Z,14.62
2023-07-19T00:08:41.584Z,14.61
2023-07-19T00:09:41.657Z,14.58
2023-07-19T00:10:41.750Z,14.58
2023-07-19T00:11:41.871Z,14.58
2023-07-19T00:12:54.329Z,14.51
2023-07-19T00:13:42.992Z,14.51
2023-07-19T00:14:42.104Z,14.47
2023-07-19T00:15:42.168Z,14.45
2023-07-19T00:16:42.291Z,14.45
2023-07-19T00:17:42.332Z,14.45
2023-07-19T00:18:42.386Z,14.42
2023-07-19T00:19:42.445Z,14.39
2023-07-19T00:20:42.512Z,14.37
2023-07-19T00:21:42.612Z,14.36
2023-07-19T00:22:42.751Z,14.35
2023-07-19T00:23:42.725Z,14.35
2023-07-19T00:24:42.793Z,14.27
2023-07-19T00:25:42.900Z,14.29
2023-07-19T00:26:43.001Z,14.29
2023-07-19T00:27:43.037Z,14.27
2023-07-19T00:28:43.121Z,14.29
2023-07-19T00:29:43.221Z,14.27
2023-07-19T00:30:43.292Z,14.27
2023-07-19T00:31:43.376Z,14.27
2023-07-19T00:32:43.472Z,14.24
2023-07-19T00:33:43.633Z,14.22
2023-07-19T00:34:43.652Z,14.24
2023-07-19T00:35:43.745Z,14.24
2023-07-19T00:36:43.819Z,14.20
2023-07-19T00:37:43.883Z,14.21
2023-07-19T00:38:43.954Z,14.20
2023-07-19T00:39:44.047Z,14.18
2023-07-19T00:40:44.154Z,14.20
2023-07-19T00:41:44.196Z,14.14
2023-07-19T00:42:44.270Z,14.10
2023-07-19T00:43:44.368Z,14.15
2023-07-19T00:44:44.415Z,14.09
2023-07-19T00:45:44.503Z,14.07
2023-07-19T00:46:44.607Z,14.10
2023-07-19T00:47:44.711Z,14.09
2023-07-19T00:48:44.754Z,14.06
2023-07-19T00:49:44.844Z,14.04
2023-07-19T00:50:44.960Z,14.07
2023-07-19T00:51:45.037Z,14.04
2023-07-19T00:52:45.118Z,14.03
2023-07-19T00:53:45.176Z,14.06
2023-07-19T00:54:45.267Z,14.03
2023-07-19T00:55:45.374Z,14.03
2023-07-19T00:56:45.434Z,14.03
2023-07-19T00:57:45.502Z,14.03
2023-07-19T00:58:45.566Z,14.04
2023-07-19T00:59:45.631Z,14.03
2023-07-19T01:00:45.740Z,13.99
2023-07-19T01:01:45.887Z,14.02
2023-07-19T01:02:45.926Z,14.00
2023-07-19T01:03:46.008Z,13.97
2023-07-19T01:04:46.146Z,13.97
2023-07-19T01:05:46.186Z,13.97
2023-07-19T01:06:46.264Z,13.97
2023-07-19T01:07:46.344Z,13.96
2023-07-19T01:08:46.449Z,13.96
2023-07-19T01:09:46.529Z,13.87
2023-07-19T01:10:46.591Z,13.87
2023-07-19T01:11:46.676Z,13.85
2023-07-19T01:12:46.741Z,13.84
2023-07-19T01:13:46.834Z,13.81
2023-07-19T01:14:46.898Z,13.81
2023-07-19T01:15:46.969Z,13.82
2023-07-19T01:16:47.059Z,13.79
2023-07-19T01:17:47.211Z,13.79
2023-07-19T01:18:47.253Z,13.77
2023-07-19T01:19:47.320Z,13.78
2023-07-19T01:20:47.395Z,13.75
2023-07-19T01:21:47.463Z,13.71
2023-07-19T01:22:47.546Z,13.75
2023-07-19T01:23:47.622Z,13.73
2023-07-19T01:24:47.714Z,13.73
2023-07-19T01:25:47.783Z,13.73
2023-07-19T01:26:47.864Z,13.67
2023-07-19T01:27:47.967Z,13.70
2023-07-19T01:28:48.127Z,13.69
2023-07-19T01:29:48.153Z,13.69
2023-07-19T01:30:48.238Z,13.64
2023-07-19T01:31:48.329Z,13.64
2023-07-19T01:32:48.448Z,13.66
2023-07-19T01:33:48.523Z,13.64
2023-07-19T01:34:48.579Z,13.63
2023-07-19T01:35:48.655Z,13.62
2023-07-19T01:36:48.731Z,13.57
2023-07-19T01:37:48.817Z,13.55
2023-07-19T01:38:48.935Z,13.55
2023-07-19T01:39:48.976Z,13.52
2023-07-19T01:40:49.045Z,13.54
2023-07-19T01:41:49.111Z,13.51
2023-07-19T01:42:49.193Z,13.49
2023-07-19T01:43:49.326Z,13.52
2023-07-19T01:44:49.341Z,13.51
2023-07-19T01:45:49.459Z,13.46
2023-07-19T01:46:49.520Z,13.48
2023-07-19T01:47:49.621Z,13.44
2023-07-19T01:48:49.678Z,13.42
2023-07-19T01:49:49.768Z,13.39
2023-07-19T01:50:49.851Z,13.44
2023-07-19T01:51:49.922Z,13.41
2023-07-19T01:52:50.001Z,13.36
2023-07-19T01:53:50.065Z,13.39
2023-07-19T01:54:50.146Z,13.33
2023-07-19T01:55:50.228Z,13.33
2023-07-19T01:56:50.301Z,13.36
2023-07-19T01:57:50.381Z,13.32
2023-07-19T01:58:50.462Z,13.29
2023-07-19T01:59:50.577Z,13.32
2023-07-19T02:00:50.651Z,13.36
2023-07-19T02:01:50.748Z,13.30
2023-07-19T02:02:50.820Z,13.38
2023-07-19T02:03:50.871Z,13.32
2023-07-19T02:04:50.996Z,13.36
2023-07-19T02:05:51.025Z,13.38
2023-07-19T02:06:51.099Z,13.33
2023-07-19T02:07:51.198Z,13.38
2023-07-19T02:08:51.268Z,13.38
2023-07-19T02:09:51.341Z,13.39
2023-07-19T02:10:51.410Z,13.42
2023-07-19T02:11:51.479Z,13.39
2023-07-19T02:12:51.564Z,13.39
2023-07-19T02:13:51.656Z,13.42
2023-07-19T02:14:51.719Z,13.42
2023-07-19T02:15:51.838Z,13.42
2023-07-19T02:16:51.860Z,13.44
2023-07-19T02:17:51.988Z,13.42
2023-07-19T02:18:52.031Z,13.45
2023-07-19T02:19:52.113Z,13.41
2023-07-19T02:20:52.193Z,13.41
2023-07-19T02:21:52.289Z,13.42
2023-07-19T02:22:52.404Z,13.45
2023-07-19T02:23:52.456Z,13.39
2023-07-19T02:24:52.533Z,13.42
2023-07-19T02:25:52.667Z,13.36
2023-07-19T02:26:52.752Z,13.44
2023-07-19T02:27:52.790Z,13.38
2023-07-19T02:28:52.871Z,13.36
2023-07-19T02:29:52.936Z,13.41
2023-07-19T02:30:53.027Z,13.38
2023-07-19T02:31:53.095Z,13.36
2023-07-19T02:32:53.226Z,13.33
2023-07-19T02:33:53.242Z,13.33
2023-07-19T02:34:53.317Z,13.38
2023-07-19T02:35:53.378Z,13.36
2023-07-19T02:36:53.447Z,13.33
2023-07-19T02:37:53.536Z,13.36
2023-07-19T02:38:53.621Z,13.33
2023-07-19T02:39:53.693Z,13.33
2023-07-19T02:40:53.762Z,13.32
2023-07-19T02:41:53.863Z,13.32
2023-07-19T02:42:53.940Z,13.28
2023-07-19T02:43:54.043Z,13.28
2023-07-19T02:44:54.129Z,13.29
2023-07-19T02:45:54.214Z,13.26
2023-07-19T02:46:54.305Z,13.28
2023-07-19T02:47:54.438Z,13.26
2023-07-19T02:48:54.489Z,13.28
2023-07-19T02:49:54.553Z,13.29
2023-07-19T02:50:54.620Z,13.28
2023-07-19T02:51:54.709Z,13.29
2023-07-19T02:52:54.790Z,13.32
2023-07-19T02:53:54.892Z,13.30
2023-07-19T02:54:54.962Z,13.36
2023-07-19T02:55:55.031Z,13.33
2023-07-19T02:56:55.093Z,13.33
2023-07-19T02:57:55.175Z,13.33
2023-07-19T02:58:55.272Z,13.33
2023-07-19T02:59:55.311Z,13.33
2023-07-19T03:00:55.451Z,13.42
2023-07-19T03:01:55.479Z,13.39
2023-07-19T03:02:55.859Z,13.44
2023-07-19T03:03:55.666Z,13.42
2023-07-19T03:04:55.766Z,13.41
2023-07-19T03:05:55.840Z,13.41
2023-07-19T03:06:55.910Z,13.39
2023-07-19T03:07:55.983Z,13.46
2023-07-19T03:08:56.059Z,13.45
2023-07-19T03:09:56.186Z,13.44
2023-07-19T03:10:56.224Z,13.51
2023-07-19T03:11:56.294Z,13.46
2023-07-19T03:12:56.383Z,13.48
2023-07-19T03:13:56.452Z,13.48
2023-07-19T03:14:56.556Z,13.51
2023-07-19T03:15:56.594Z,13.52
2023-07-19T03:16:56.689Z,13.57
2023-07-19T03:17:56.738Z,13.55
2023-07-19T03:18:56.803Z,13.59
2023-07-19T03:19:56.904Z,13.59
2023-07-19T03:20:56.986Z,13.63
2023-07-19T03:21:57.070Z,13.64
2023-07-19T03:22:57.178Z,13.66
2023-07-19T03:23:57.233Z,13.67
2023-07-19T03:24:57.294Z,13.70
2023-07-19T03:25:57.398Z,13.71
2023-07-19T03:26:57.427Z,13.77
2023-07-19T03:27:58.075Z,13.82
2023-07-19T03:28:57.576Z,13.81
2023-07-19T03:29:57.655Z,13.81
2023-07-19T03:30:57.796Z,13.81
2023-07-19T03:31:57.799Z,13.91
2023-07-19T03:32:57.922Z,13.89
2023-07-19T03:33:57.962Z,13.89
2023-07-19T03:34:58.029Z,13.91
2023-07-19T03:35:58.126Z,14.02
2023-07-19T03:36:58.201Z,13.99
2023-07-19T03:37:58.284Z,14.00
2023-07-19T03:38:58.356Z,14.04
2023-07-19T03:39:58.431Z,14.04
2023-07-19T03:40:58.529Z,14.04
2023-07-19T03:41:58.607Z,14.06
2023-07-19T03:42:58.677Z,14.10
2023-07-19T03:43:58.791Z,14.12
2023-07-19T03:44:58.825Z,14.12
2023-07-19T03:45:58.961Z,14.12
2023-07-19T03:46:58.956Z,14.17
2023-07-19T03:47:59.081Z,14.22
2023-07-19T03:48:59.143Z,14.24
2023-07-19T03:49:59.235Z,14.32
2023-07-19T03:50:59.320Z,14.29
2023-07-19T03:51:59.390Z,14.33
2023-07-19T03:52:59.483Z,14.36
2023-07-19T03:53:59.515Z,14.39
2023-07-19T03:54:59.592Z,14.45
2023-07-19T03:55:59.672Z,14.46
2023-07-19T03:56:59.735Z,14.51
2023-07-19T03:57:59.817Z,14.54
2023-07-19T03:58:59.897Z,14.58
2023-07-19T03:59:59.978Z,14.58
2023-07-19T04:01:00.044Z,14.65
2023-07-19T04:02:00.245Z,14.68
2023-07-19T04:03:00.228Z,14.70
2023-07-19T04:04:00.314Z,14.77
2023-07-19T04:05:00.399Z,14.77
2023-07-19T04:06:00.499Z,14.78
2023-07-19T04:07:00.539Z,14.83
2023-07-19T04:08:00.621Z,14.81
2023-07-19T04:09:00.710Z,14.88
2023-07-19T04:10:00.795Z,14.91
2023-07-19T04:11:00.880Z,14.92
2023-07-19T04:12:00.987Z,14.91
2023-07-19T04:13:01.032Z,14.98
2023-07-19T04:14:01.120Z,15.01
2023-07-19T04:15:08.707Z,15.01
2023-07-19T04:16:01.273Z,15.07
2023-07-19T04:17:01.356Z,15.03
2023-07-19T04:18:01.445Z,15.10
2023-07-19T04:19:01.549Z,15.14
2023-07-19T04:20:01.639Z,15.20
2023-07-19T04:21:01.739Z,15.17
2023-07-19T04:22:01.829Z,15.25
2023-07-19T04:23:01.961Z,15.21
2023-07-19T04:24:01.983Z,15.25
2023-07-19T04:25:02.087Z,15.28
2023-07-19T04:26:02.164Z,15.27
2023-07-19T04:27:02.183Z,15.29
2023-07-19T04:28:02.258Z,15.31
2023-07-19T04:29:02.330Z,15.34
2023-07-19T04:30:02.413Z,15.39
2023-07-19T04:31:02.524Z,15.38
2023-07-19T04:32:02.612Z,15.41
2023-07-19T04:33:02.855Z,15.46
2023-07-19T04:34:02.792Z,15.47
2023-07-19T04:35:02.845Z,15.49
2023-07-19T04:36:02.923Z,15.49
2023-07-19T04:37:03.006Z,15.51
2023-07-19T04:38:03.111Z,15.53
2023-07-19T04:39:03.187Z,15.54
2023-07-19T04:40:03.251Z,15.57
2023-07-19T04:41:03.342Z,15.64
2023-07-19T04:42:03.406Z,15.64
2023-07-19T04:43:03.526Z,15.68
2023-07-19T04:44:03.548Z,15.67
2023-07-19T04:45:03.628Z,15.71
2023-07-19T04:46:03.722Z,15.71
2023-07-19T04:47:03.756Z,15.75
2023-07-19T04:48:03.914Z,15.78
2023-07-19T04:49:03.923Z,15.80
2023-07-19T04:50:03.986Z,15.86
2023-07-19T04:51:04.050Z,15.83
2023-07-19T04:52:04.137Z,15.86
2023-07-19T04:53:04.245Z,15.92
2023-07-19T04:54:04.360Z,16.00
2023-07-19T04:55:04.397Z,16.02
2023-07-19T04:56:04.479Z,16.01
2023-07-19T04:57:04.557Z,16.05
2023-07-19T04:58:04.639Z,16.11
2023-07-19T04:59:04.729Z,16.11
2023-07-19T05:00:04.813Z,16.14
2023-07-19T05:01:04.969Z,16.17
2023-07-19T05:02:05.064Z,16.15
2023-07-19T05:03:05.112Z,16.21
2023-07-19T05:04:05.203Z,16.20
2023-07-19T05:05:05.284Z,16.25
2023-07-19T05:06:05.371Z,16.25
2023-07-19T05:07:05.438Z,16.27
2023-07-19T05:08:05.527Z,16.27
2023-07-19T05:09:05.587Z,16.28
2023-07-19T05:10:05.683Z,16.24
2023-07-19T05:11:05.780Z,16.30
2023-07-19T05:12:05.850Z,16.30
2023-07-19T05:13:05.942Z,16.31
2023-07-19T05:14:06.645Z,16.35
2023-07-19T05:15:06.153Z,16.38
2023-07-19T05:16:07.166Z,16.34
2023-07-19T05:17:06.291Z,16.39
2023-07-19T05:18:06.368Z,16.43
2023-07-19T05:19:06.410Z,16.48
2023-07-19T05:20:06.550Z,16.49
2023-07-19T05:21:06.608Z,16.48
2023-07-19T05:22:06.713Z,16.50
2023-07-19T05:23:06.785Z,16.57
2023-07-19T05:24:06.830Z,16.58
2023-07-19T05:25:06.923Z,16.61
2023-07-19T05:26:07.005Z,16.63
2023-07-19T05:27:07.078Z,16.70
2023-07-19T05:28:07.163Z,16.71
2023-07-19T05:29:07.222Z,16.79
2023-07-19T05:30:07.293Z,16.86
2023-07-19T05:31:07.412Z,16.93
2023-07-19T05:32:07.484Z,16.96
2023-07-19T05:33:07.579Z,17.00
2023-07-19T05:34:07.620Z,17.01
2023-07-19T05:35:07.697Z,17.06
2023-07-19T05:36:07.787Z,17.08
2023-07-19T05:37:07.872Z,17.12
2023-07-19T05:38:07.911Z,17.18
2023-07-19T05:39:07.980Z,17.19
2023-07-19T05:40:08.063Z,17.25
2023-07-19T05:41:08.145Z,17.26
2023-07-19T05:42:08.242Z,17.30
2023-07-19T05:43:08.328Z,17.34
2023-07-19T05:44:11.740Z,17.36
2023-07-19T05:45:08.492Z,17.40
2023-07-19T05:46:08.674Z,17.41
2023-07-19T05:47:08.665Z,17.51
2023-07-19T05:48:08.802Z,17.52
2023-07-19T05:49:08.812Z,17.58
2023-07-19T05:50:08.886Z,17.62
2023-07-19T05:51:08.976Z,17.64
2023-07-19T05:52:09.063Z,17.71
2023-07-19T05:53:09.175Z,17.75
2023-07-19T05:54:09.241Z,17.74
2023-07-19T05:55:09.333Z,17.79
2023-07-19T05:56:09.433Z,17.79
2023-07-19T05:57:09.520Z,17.82
2023-07-19T05:58:09.587Z,17.89
2023-07-19T05:59:09.666Z,17.92
2023-07-19T06:00:18.984Z,18.00
2023-07-19T06:01:10.917Z,18.00
2023-07-19T06:02:10.062Z,18.11
2023-07-19T06:03:10.103Z,18.14
2023-07-19T06:04:10.122Z,18.15
2023-07-19T06:05:10.211Z,18.23
2023-07-19T06:06:10.289Z,18.26
2023-07-19T06:07:10.366Z,18.32
2023-07-19T06:08:23.651Z,18.33
2023-07-19T06:09:11.562Z,18.41
2023-07-19T06:10:10.637Z,18.42
2023-07-19T06:11:10.677Z,18.50
2023-07-19T06:12:10.731Z,18.58
2023-07-19T06:13:10.812Z,18.63
2023-07-19T06:14:10.880Z,18.70
2023-07-19T06:15:13.862Z,18.80
2023-07-19T06:16:11.100Z,18.81
2023-07-19T06:17:11.161Z,18.82
2023-07-19T06:18:11.286Z,18.90
2023-07-19T06:19:11.315Z,18.94
2023-07-19T06:20:11.386Z,19.06
2023-07-19T06:21:11.465Z,19.04
2023-07-19T06:22:11.598Z,19.13
2023-07-19T06:23:11.815Z,19.16
2023-07-19T06:24:11.792Z,19.21
2023-07-19T06:25:11.849Z,19.23
2023-07-19T06:26:11.930Z,19.25
2023-07-19T06:27:12.048Z,19.31
2023-07-19T06:28:12.119Z,19.33
2023-07-19T06:29:12.227Z,19.32
2023-07-19T06:30:12.298Z,19.40
2023-07-19T06:31:12.392Z,19.47
2023-07-19T06:32:12.488Z,19.55
2023-07-19T06:33:12.668Z,19.58
2023-07-19T06:34:12.659Z,19.61
2023-07-19T06:35:12.749Z,19.63
2023-07-19T06:36:12.805Z,19.65
2023-07-19T06:37:12.866Z,19.71
2023-07-19T06:38:12.989Z,19.73
2023-07-19T06:39:13.037Z,19.73
2023-07-19T06:40:13.110Z,19.77
2023-07-19T06:41:13.174Z,19.81
2023-07-19T06:42:13.281Z,19.86
2023-07-19T06:43:13.385Z,19.88
2023-07-19T06:44:13.452Z,19.96
2023-07-19T06:45:13.530Z,20.13
2023-07-19T06:46:13.668Z,20.24
2023-07-19T06:47:14.708Z,20.32
2023-07-19T06:48:13.805Z,20.36
2023-07-19T06:49:13.822Z,20.35
2023-07-19T06:50:13.888Z,20.50
2023-07-19T06:51:13.965Z,20.61
2023-07-19T06:52:14.020Z,20.67
2023-07-19T06:53:14.116Z,20.72
2023-07-19T06:54:15.880Z,20.66
2023-07-19T06:55:14.262Z,20.64
2023-07-19T06:56:14.366Z,20.62
2023-07-19T06:57:14.436Z,20.62
2023-07-19T06:58:14.503Z,20.57
2023-07-19T06:59:14.581Z,20.54
2023-07-19T07:00:14.682Z,20.50
2023-07-19T07:01:14.796Z,20.47
2023-07-19T07:02:14.850Z,20.43
2023-07-19T07:03:14.980Z,20.38
2023-07-19T07:04:15.093Z,20.36
2023-07-19T07:05:15.081Z,20.38
2023-07-19T07:06:15.128Z,20.42
2023-07-19T07:07:15.253Z,20.55
2023-07-19T07:08:15.308Z,20.64
2023-07-19T07:09:15.391Z,20.82
2023-07-19T07:10:15.454Z,20.99
2023-07-19T07:11:15.518Z,21.14
2023-07-19T07:12:15.616Z,21.29
2023-07-19T07:13:15.686Z,21.46
2023-07-19T07:14:15.763Z,21.58
2023-07-19T07:15:15.824Z,21.58
2023-07-19T07:16:15.993Z,21.54
2023-07-19T07:17:16.010Z,21.49
2023-07-19T07:18:16.085Z,21.46
2023-07-19T07:19:16.194Z,21.49
2023-07-19T07:20:16.275Z,21.61
2023-07-19T07:21:16.350Z,21.58
2023-07-19T07:22:16.436Z,21.68
2023-07-19T07:23:16.600Z,21.74
2023-07-19T07:24:16.585Z,21.79
2023-07-19T07:25:16.715Z,21.65
2023-07-19T07:26:16.787Z,21.68
2023-07-19T07:27:16.854Z,21.68
2023-07-19T07:28:17.422Z,21.67
2023-07-19T07:29:17.010Z,21.68
2023-07-19T07:30:17.069Z,21.74
2023-07-19T07:31:17.312Z,21.75
2023-07-19T07:32:17.273Z,21.83
2023-07-19T07:33:17.345Z,21.75
2023-07-19T07:34:17.448Z,21.79
2023-07-19T07:35:17.498Z,21.80
2023-07-19T07:36:17.565Z,21.92
2023-07-19T07:37:17.792Z,22.12
2023-07-19T07:38:17.754Z,22.21
2023-07-19T07:39:17.853Z,22.37
2023-07-19T07:40:17.975Z,22.30
2023-07-19T07:41:18.079Z,22.36
2023-07-19T07:42:18.073Z,22.37
2023-07-19T07:43:18.144Z,22.40
2023-07-19T07:44:18.222Z,22.33
2023-07-19T07:45:18.292Z,22.30
2023-07-19T07:46:18.377Z,22.28
2023-07-19T07:47:18.477Z,22.27
2023-07-19T07:48:18.553Z,22.28
2023-07-19T07:49:18.622Z,22.30
2023-07-19T07:50:18.708Z,22.24
2023-07-19T07:51:18.939Z,22.25
2023-07-19T07:52:18.920Z,22.21
2023-07-19T07:53:18.958Z,22.25
2023-07-19T07:54:19.104Z,22.20
2023-07-19T07:55:19.154Z,22.18
2023-07-19T07:56:19.346Z,22.28
2023-07-19T07:57:19.293Z,22.49
2023-07-19T07:58:19.398Z,22.62
2023-07-19T07:59:19.464Z,22.70
2023-07-19T08:00:19.534Z,22.82
2023-07-19T08:01:20.200Z,23.02
2023-07-19T08:02:19.677Z,23.20
2023-07-19T08:03:19.843Z,23.39
2023-07-19T08:04:19.796Z,23.53
2023-07-19T08:05:19.899Z,23.66
2023-07-19T08:06:19.971Z,23.85
2023-07-19T08:07:20.033Z,24.05
2023-07-19T08:08:20.094Z,24.10
2023-07-19T08:09:23.057Z,24.15
2023-07-19T08:10:20.300Z,24.09
2023-07-19T08:11:20.605Z,24.12
2023-07-19T08:12:20.418Z,24.32
2023-07-19T08:13:20.487Z,24.42
2023-07-19T08:14:20.572Z,24.43
2023-07-19T08:15:20.653Z,24.53
2023-07-19T08:16:20.749Z,24.47
2023-07-19T08:17:20.810Z,24.57
2023-07-19T08:18:20.870Z,24.57
2023-07-19T08:19:20.948Z,24.61
2023-07-19T08:20:21.049Z,24.58
2023-07-19T08:21:33.796Z,24.50
2023-07-19T08:22:22.190Z,24.49
2023-07-19T08:23:21.415Z,24.43
2023-07-19T08:24:21.373Z,24.30
2023-07-19T08:25:27.203Z,24.16
2023-07-19T08:26:22.534Z,24.08
2023-07-19T08:27:21.631Z,24.00
2023-07-19T08:28:22.211Z,24.02
2023-07-19T08:29:23.150Z,23.97
2023-07-19T08:30:22.915Z,23.91
2023-07-19T08:31:22.959Z,23.84
2023-07-19T08:32:22.786Z,23.76
2023-07-19T08:33:22.141Z,23.70
2023-07-19T08:34:22.209Z,23.68
2023-07-19T08:35:22.332Z,23.69
2023-07-19T08:36:22.431Z,23.75
2023-07-19T08:37:22.464Z,23.72
2023-07-19T08:38:22.528Z,23.76
2023-07-19T08:39:22.592Z,23.80
2023-07-19T08:40:22.676Z,23.93
2023-07-19T08:41:23.204Z,24.03
2023-07-19T08:42:22.808Z,24.10
2023-07-19T08:43:22.948Z,24.18
2023-07-19T08:44:22.985Z,24.20
2023-07-19T08:45:23.077Z,24.21
2023-07-19T08:46:23.162Z,24.20
2023-07-19T08:47:23.256Z,24.21
2023-07-19T08:48:23.287Z,24.27
2023-07-19T08:49:23.397Z,24.25
2023-07-19T08:50:23.498Z,24.18
2023-07-19T08:51:23.697Z,24.28
2023-07-19T08:52:23.593Z,24.49
2023-07-19T08:53:23.721Z,24.67
2023-07-19T08:54:23.766Z,24.83
2023-07-19T08:55:23.923Z,24.98
2023-07-19T08:56:23.956Z,25.14
2023-07-19T08:57:24.038Z,25.21
2023-07-19T08:58:24.101Z,25.24
2023-07-19T08:59:24.180Z,25.17
2023-07-19T09:00:24.268Z,25.08
2023-07-19T09:01:24.708Z,25.00
2023-07-19T09:02:24.463Z,24.81
2023-07-19T09:03:24.528Z,24.68
2023-07-19T09:04:24.617Z,24.60
2023-07-19T09:05:24.682Z,24.57
2023-07-19T09:06:24.712Z,24.61
2023-07-19T09:07:24.777Z,24.68
2023-07-19T09:08:24.835Z,24.73
2023-07-19T09:09:24.930Z,24.88
2023-07-19T09:10:25.055Z,24.83
2023-07-19T09:11:25.104Z,24.88
2023-07-19T09:12:25.169Z,24.90
2023-07-19T09:13:25.229Z,24.87
2023-07-19T09:14:25.341Z,24.83
2023-07-19T09:15:25.419Z,24.88
2023-07-19T09:16:25.487Z,24.95
2023-07-19T09:17:25.599Z,25.03
2023-07-19T09:18:25.786Z,25.14
2023-07-19T09:19:25.702Z,25.25
2023-07-19T09:20:25.847Z,25.39
2023-07-19T09:21:26.118Z,25.47
2023-07-19T09:22:26.014Z,25.60
2023-07-19T09:23:26.079Z,25.61
2023-07-19T09:24:26.175Z,25.55
2023-07-19T09:25:26.242Z,25.47
2023-07-19T09:26:26.322Z,25.42
2023-07-19T09:27:26.432Z,25.20
2023-07-19T09:28:26.467Z,25.14
2023-07-19T09:29:26.542Z,25.09
2023-07-19T09:30:26.604Z,25.03
2023-07-19T09:31:26.793Z,24.95
2023-07-19T09:32:26.963Z,24.88
2023-07-19T09:33:26.857Z,24.83
2023-07-19T09:34:26.928Z,24.87
2023-07-19T09:35:27.017Z,24.83
2023-07-19T09:36:27.069Z,24.80
2023-07-19T09:37:27.147Z,24.84
2023-07-19T09:38:27.272Z,24.85
2023-07-19T09:39:27.316Z,24.99
2023-07-19T09:40:27.389Z,25.10
2023-07-19T09:41:27.472Z,25.18
2023-07-19T09:42:27.561Z,25.15
2023-07-19T09:43:27.630Z,25.13
2023-07-19T09:44:27.686Z,25.10
2023-07-19T09:45:27.775Z,25.23
2023-07-19T09:46:27.920Z,25.33
2023-07-19T09:47:29.501Z,25.39
2023-07-19T09:48:28.010Z,25.35
2023-07-19T09:49:28.083Z,25.43
2023-07-19T09:50:28.181Z,25.43
2023-07-19T09:51:28.232Z,25.45
2023-07-19T09:52:28.313Z,25.45
2023-07-19T09:53:28.368Z,25.40
2023-07-19T09:54:28.461Z,25.36
2023-07-19T09:55:28.543Z,25.32
2023-07-19T09:56:28.612Z,25.30
2023-07-19T09:57:28.676Z,25.20
2023-07-19T09:58:28.804Z,25.15
2023-07-19T09:59:28.867Z,25.02
2023-07-19T10:00:28.929Z,24.85
2023-07-19T10:01:29.023Z,24.76
2023-07-19T10:02:29.154Z,24.76
2023-07-19T10:03:29.229Z,24.71
2023-07-19T10:04:29.258Z,24.69
2023-07-19T10:05:29.396Z,24.71
2023-07-19T10:06:29.395Z,24.90
2023-07-19T10:07:41.189Z,25.20
2023-07-19T10:08:32.256Z,25.50
2023-07-19T10:09:29.703Z,25.64
2023-07-19T10:10:29.740Z,25.85
2023-07-19T10:11:29.845Z,25.88
2023-07-19T10:12:29.908Z,25.97
2023-07-19T10:13:30.021Z,26.07
2023-07-19T10:14:34.302Z,26.07
2023-07-19T10:15:37.744Z,26.13
2023-07-19T10:16:30.239Z,26.17
2023-07-19T10:17:30.376Z,26.20
2023-07-19T10:18:30.538Z,26.13
2023-07-19T10:19:30.449Z,26.12
2023-07-19T10:20:30.520Z,25.97
2023-07-19T10:21:30.583Z,25.75
2023-07-19T10:22:30.666Z,25.57
2023-07-19T10:23:30.730Z,25.39
2023-07-19T10:24:30.817Z,25.24
2023-07-19T10:25:30.923Z,25.18
2023-07-19T10:26:30.976Z,25.06
2023-07-19T10:27:31.041Z,25.06
2023-07-19T10:28:31.322Z,25.05
2023-07-19T10:29:31.222Z,25.09
2023-07-19T10:30:31.265Z,25.17
2023-07-19T10:31:31.352Z,25.36
2023-07-19T10:32:31.426Z,25.62
2023-07-19T10:33:31.489Z,25.64
2023-07-19T10:34:42.998Z,25.80
2023-07-19T10:35:32.614Z,25.79
2023-07-19T10:36:31.713Z,25.72
2023-07-19T10:37:31.933Z,25.67
2023-07-19T10:38:31.910Z,25.54
2023-07-19T10:39:31.989Z,25.47
2023-07-19T10:40:32.052Z,25.38
2023-07-19T10:41:32.106Z,25.38
2023-07-19T10:42:32.214Z,25.39
2023-07-19T10:43:47.085Z,25.51
2023-07-19T10:44:33.358Z,25.58
2023-07-19T10:45:32.446Z,25.60
2023-07-19T10:46:32.539Z,25.61
2023-07-19T10:47:32.615Z,25.57
2023-07-19T10:48:32.690Z,25.55
2023-07-19T10:49:32.767Z,25.67
2023-07-19T10:50:32.828Z,25.83
2023-07-19T10:51:32.946Z,25.90
2023-07-19T10:52:33.006Z,25.99
2023-07-19T10:53:33.084Z,26.12
2023-07-19T10:54:42.245Z,26.29
2023-07-19T10:55:52.933Z,26.48
2023-07-19T10:56:34.348Z,26.72
2023-07-19T10:57:33.402Z,26.67
2023-07-19T10:58:33.482Z,26.72
2023-07-19T10:59:33.582Z,26.70
2023-07-19T11:00:33.646Z,26.70
2023-07-19T11:01:33.765Z,26.66
2023-07-19T11:02:34.001Z,26.57
2023-07-19T11:03:34.130Z,26.43
2023-07-19T11:04:34.050Z,26.20
2023-07-19T11:05:34.102Z,26.15
2023-07-19T11:06:34.278Z,26.13
2023-07-19T11:07:34.271Z,26.18
2023-07-19T11:08:34.383Z,26.20
2023-07-19T11:09:34.444Z,26.39
2023-07-19T11:10:34.477Z,26.70
2023-07-19T11:11:34.553Z,26.81
2023-07-19T11:12:34.620Z,26.82
2023-07-19T11:13:34.701Z,26.87
2023-07-19T11:14:34.784Z,27.17
2023-07-19T11:15:34.886Z,27.40
2023-07-19T11:16:34.982Z,27.39
2023-07-19T11:17:35.064Z,27.22
2023-07-19T11:18:35.109Z,27.03
2023-07-19T11:19:35.206Z,26.85
2023-07-19T11:20:35.261Z,26.77
2023-07-19T11:21:35.405Z,26.80
2023-07-19T11:22:35.480Z,26.99
2023-07-19T11:23:35.525Z,27.37
2023-07-19T11:24:35.576Z,27.66
2023-07-19T11:25:35.684Z,27.88
2023-07-19T11:26:35.737Z,27.90
2023-07-19T11:27:35.850Z,27.49
2023-07-19T11:28:35.946Z,27.13
2023-07-19T11:29:35.969Z,26.95
2023-07-19T11:30:36.051Z,26.67
2023-07-19T11:31:36.282Z,26.48
2023-07-19T11:32:36.265Z,26.35
2023-07-19T11:33:36.304Z,26.32
2023-07-19T11:34:36.395Z,26.54
2023-07-19T11:35:36.573Z,26.65
2023-07-19T11:36:36.552Z,26.65
2023-07-19T11:37:36.619Z,26.47
2023-07-19T11:38:36.692Z,26.33
2023-07-19T11:39:36.786Z,26.23
2023-07-19T11:40:36.846Z,26.17
2023-07-19T11:41:36.984Z,26.17
2023-07-19T11:42:38.096Z,26.09
2023-07-19T11:43:37.088Z,26.07
2023-07-19T11:44:37.161Z,26.13
2023-07-19T11:45:37.229Z,26.07
2023-07-19T11:46:37.365Z,25.99
2023-07-19T11:47:37.472Z,25.94
2023-07-19T11:48:37.506Z,25.85
2023-07-19T11:49:37.604Z,25.67
2023-07-19T11:50:37.643Z,25.65
2023-07-19T11:51:37.723Z,25.64
2023-07-19T11:52:37.809Z,25.65
2023-07-19T11:53:37.889Z,25.72
2023-07-19T11:54:37.944Z,25.82
2023-07-19T11:55:38.025Z,25.87
2023-07-19T11:56:38.121Z,25.94
2023-07-19T11:57:38.210Z,26.30
2023-07-19T11:58:44.986Z,26.60
2023-07-19T11:59:39.388Z,27.02
2023-07-19T12:00:38.462Z,27.32
2023-07-19T12:01:38.511Z,27.67
2023-07-19T12:02:38.653Z,27.85
2023-07-19T12:03:38.713Z,27.72
2023-07-19T12:04:38.734Z,27.60
2023-07-19T12:05:38.807Z,27.41
2023-07-19T12:06:38.874Z,27.32
2023-07-19T12:07:38.950Z,27.29
2023-07-19T12:08:39.054Z,27.44
2023-07-19T12:09:39.081Z,27.55
2023-07-19T12:10:39.169Z,27.51
2023-07-19T12:11:39.228Z,27.66
2023-07-19T12:12:39.324Z,27.81
2023-07-19T12:13:39.387Z,27.82
2023-07-19T12:14:39.449Z,27.60
2023-07-19T12:15:39.545Z,27.51
2023-07-19T12:16:39.644Z,27.46
2023-07-19T12:17:39.771Z,27.19
2023-07-19T12:18:39.817Z,26.87
2023-07-19T12:19:39.850Z,26.62
2023-07-19T12:20:39.919Z,26.54
2023-07-19T12:21:39.953Z,26.40
2023-07-19T12:22:40.096Z,26.32
2023-07-19T12:23:41.489Z,26.20
2023-07-19T12:24:40.208Z,26.02
2023-07-19T12:25:40.284Z,26.01
2023-07-19T12:26:40.361Z,25.99
2023-07-19T12:27:40.434Z,25.98
2023-07-19T12:28:40.584Z,25.97
2023-07-19T12:29:53.083Z,26.02
2023-07-19T12:30:41.729Z,26.10
2023-07-19T12:31:40.826Z,26.09
2023-07-19T12:32:40.950Z,26.01
2023-07-19T12:33:40.945Z,25.87
2023-07-19T12:34:41.054Z,25.79
2023-07-19T12:35:41.158Z,25.73
2023-07-19T12:36:41.236Z,25.72
2023-07-19T12:37:41.313Z,25.61
2023-07-19T12:38:41.370Z,25.57
2023-07-19T12:39:41.467Z,25.47
2023-07-19T12:40:41.566Z,25.43
2023-07-19T12:41:41.651Z,25.39
2023-07-19T12:42:41.720Z,25.45
2023-07-19T12:43:41.796Z,25.65
2023-07-19T12:44:41.870Z,25.82
2023-07-19T12:45:41.952Z,26.07
2023-07-19T12:46:42.129Z,26.12
2023-07-19T12:47:42.145Z,26.15
2023-07-19T12:48:42.213Z,26.23
2023-07-19T12:49:42.264Z,26.50
2023-07-19T12:50:42.362Z,26.65
2023-07-19T12:51:42.434Z,26.69
2023-07-19T12:52:51.913Z,26.63
2023-07-19T12:53:43.633Z,26.55